Time;durP1;ratioP1;P1;durP2;ratioP2;P2;SDS_P1;SDS_P2;PMS_P1;PMS_P2;Temp;Humidity;BMP_temperature;BMP_pressure;BME280_temperature;BME280_humidity;BME280_pressure;Samples;Min_cycle;Max_cycle;Signal;HPM_P1;HPM_P2
2023/02/02 00:01:51;;;;;;;5.72;2.10;;;;;;;;;;5078027;28;20248;-85
2023/02/02 00:04:20;;;;;;;3.83;1.48;;;;;;;;;;5078192;28;20311;-86
2023/02/02 00:06:48;;;;;;;3.70;2.13;;;;;;;;;;5077662;28;20288;-85
2023/02/02 00:09:18;;;;;;;9.18;2.33;;;;;;;;;;5077316;28;20228;-83
2023/02/02 00:11:49;;;;;;;8.65;2.60;;;;;;;;;;5077616;28;20304;-83
2023/02/02 00:14:18;;;;;;;4.05;1.92;;;;;;;;;;5077464;28;20236;-84
2023/02/02 00:16:47;;;;;;;6.30;2.25;;;;;;;;;;5076819;28;20207;-85
2023/02/02 00:19:18;;;;;;;4.28;1.95;;;;;;;;;;5075496;28;20288;-83
2023/02/02 00:21:46;;;;;;;5.30;2.30;;;;;;;;;;5075947;28;20247;-83
2023/02/02 00:24:17;;;;;;;3.42;1.80;;;;;;;;;;5076433;28;20227;-85
2023/02/02 00:26:48;;;;;;;4.95;1.83;;;;;;;;;;5076456;28;20634;-84
2023/02/02 00:29:20;;;;;;;4.18;1.58;;;;;;;;;;5075558;28;20219;-85
2023/02/02 00:31:48;;;;;;;7.22;1.90;;;;;;;;;;5075525;28;20576;-84
2023/02/02 00:34:16;;;;;;;4.05;1.80;;;;;;;;;;5076280;28;20563;-85
2023/02/02 00:36:44;;;;;;;3.50;1.50;;;;;;;;;;5076108;28;20215;-86
2023/02/02 00:39:17;;;;;;;2.78;1.55;;;;;;;;;;5074829;28;20201;-85
2023/02/02 00:41:44;;;;;;;7.68;2.25;;;;;;;;;;5076777;28;20225;-84
2023/02/02 00:46:58;;;;;;;4.00;2.08;;;;;;;;;;5075639;28;20581;-85
2023/02/02 00:49:26;;;;;;;2.00;1.30;;;;;;;;;;5074490;28;20593;-85
2023/02/02 00:51:53;;;;;;;6.70;2.08;;;;;;;;;;5074517;28;20315;-85
2023/02/02 00:54:21;;;;;;;3.05;1.45;;;;;;;;;;5075567;28;20211;-83
2023/02/02 00:56:51;;;;;;;4.13;1.60;;;;;;;;;;5075122;28;20197;-85
2023/02/02 00:59:18;;;;;;;5.50;1.73;;;;;;;;;;5075756;28;20288;-84
2023/02/02 01:01:46;;;;;;;4.03;1.70;;;;;;;;;;5075489;28;20717;-84
2023/02/02 01:04:15;;;;;;;7.07;2.55;;;;;;;;;;5074845;28;20228;-85
2023/02/02 01:06:43;;;;;;;5.70;2.50;;;;;;;;;;5074728;28;20296;-85
2023/02/02 01:09:10;;;;;;;3.83;2.10;;;;;;;;;;5075266;28;20232;-82
2023/02/02 01:11:37;;;;;;;4.22;1.80;;;;;;;;;;5074709;28;20307;-84
2023/02/02 01:14:05;;;;;;;6.25;1.80;;;;;;;;;;5073503;28;20752;-84
2023/02/02 01:16:33;;;;;;;4.32;2.10;;;;;;;;;;5075212;28;20707;-83
2023/02/02 01:19:00;;;;;;;6.45;2.15;;;;;;;;;;5074611;28;20203;-83
2023/02/02 01:21:29;;;;;;;5.13;2.42;;;;;;;;;;5074578;28;20800;-84
2023/02/02 01:23:57;;;;;;;7.63;2.65;;;;;;;;;;5075772;28;20227;-84
2023/02/02 01:26:24;;;;;;;4.18;1.90;;;;;;;;;;5075592;28;20297;-84
2023/02/02 01:28:52;;;;;;;3.85;1.27;;;;;;;;;;5075120;28;20243;-85
2023/02/02 01:31:20;;;;;;;4.13;1.73;;;;;;;;;;5075063;28;20308;-83
2023/02/02 01:33:49;;;;;;;7.18;1.90;;;;;;;;;;5075148;28;20283;-84
2023/02/02 01:36:18;;;;;;;9.85;2.17;;;;;;;;;;5075931;28;20201;-85
2023/02/02 01:38:48;;;;;;;3.85;1.95;;;;;;;;;;5073698;28;20685;-85
2023/02/02 01:41:19;;;;;;;4.78;1.70;;;;;;;;;;5074738;28;20215;-84
2023/02/02 01:43:55;;;;;;;4.22;1.70;;;;;;;;;;5074842;28;20233;-84
2023/02/02 01:46:25;;;;;;;7.75;2.70;;;;;;;;;;5074263;28;20552;-85
2023/02/02 01:49:00;;;;;;;7.45;2.85;;;;;;;;;;5074256;28;20299;-85
2023/02/02 01:51:34;;;;;;;3.58;1.70;;;;;;;;;;5074629;28;20220;-85
2023/02/02 01:54:04;;;;;;;3.25;1.55;;;;;;;;;;5075034;28;20255;-83
2023/02/02 01:56:36;;;;;;;5.72;1.90;;;;;;;;;;5075489;28;20297;-84
2023/02/02 01:59:04;;;;;;;6.63;1.77;;;;;;;;;;5073795;28;20205;-84
2023/02/02 02:01:32;;;;;;;12.10;2.30;;;;;;;;;;5074327;28;20709;-83
2023/02/02 02:03:59;;;;;;;6.07;1.85;;;;;;;;;;5074741;28;20231;-85
2023/02/02 02:06:27;;;;;;;4.05;1.60;;;;;;;;;;5075250;28;20290;-85
2023/02/02 02:08:59;;;;;;;5.82;2.17;;;;;;;;;;5074479;28;20248;-85
2023/02/02 02:11:28;;;;;;;5.90;2.20;;;;;;;;;;5073968;28;20225;-84
2023/02/02 02:16:59;;;;;;;6.22;2.00;;;;;;;;;;5074765;28;20224;-84
2023/02/02 02:26:46;;;;;;;10.10;2.75;;;;;;;;;;5074787;28;20771;-83
2023/02/02 02:30:03;;;;;;;3.70;1.88;;;;;;;;;;5073729;28;20247;-84
2023/02/02 02:32:41;;;;;;;5.93;1.60;;;;;;;;;;5051455;28;20201;-83
2023/02/02 02:35:14;;;;;;;5.70;1.70;;;;;;;;;;5075299;28;20196;-84
2023/02/02 02:37:48;;;;;;;5.88;1.73;;;;;;;;;;5074954;28;20200;-83
2023/02/02 02:40:22;;;;;;;6.28;2.00;;;;;;;;;;5073637;28;20644;-83
2023/02/02 02:42:55;;;;;;;4.70;1.67;;;;;;;;;;5074961;28;20188;-84
2023/02/02 02:45:23;;;;;;;5.05;1.60;;;;;;;;;;5075440;28;20220;-84
2023/02/02 02:47:53;;;;;;;4.10;1.63;;;;;;;;;;5074886;28;20292;-84
2023/02/02 02:50:21;;;;;;;5.90;2.20;;;;;;;;;;5074631;28;20319;-85
2023/02/02 02:52:53;;;;;;;1.85;1.40;;;;;;;;;;5071859;28;20197;-82
2023/02/02 02:55:20;;;;;;;3.67;1.10;;;;;;;;;;5074279;28;20177;-83
2023/02/02 02:58:02;;;;;;;3.35;1.80;;;;;;;;;;5074652;28;20286;-83
2023/02/02 03:00:48;;;;;;;6.38;1.85;;;;;;;;;;5075081;28;20224;-84
2023/02/02 03:03:36;;;;;;;5.70;2.90;;;;;;;;;;5071975;28;20201;-82
2023/02/02 03:06:08;;;;;;;6.00;1.98;;;;;;;;;;5076157;28;20216;-83
2023/02/02 03:08:39;;;;;;;4.55;1.45;;;;;;;;;;5075180;28;20685;-84
2023/02/02 03:11:08;;;;;;;10.98;2.10;;;;;;;;;;5076314;28;20770;-84
2023/02/02 03:13:36;;;;;;;8.02;1.33;;;;;;;;;;5075143;28;20295;-83
2023/02/02 03:16:04;;;;;;;3.10;1.67;;;;;;;;;;5075988;28;20292;-83
2023/02/02 03:18:33;;;;;;;4.50;1.60;;;;;;;;;;5074867;28;20207;-84
2023/02/02 03:21:01;;;;;;;5.15;1.80;;;;;;;;;;5075683;28;20780;-84
2023/02/02 03:23:29;;;;;;;4.72;1.70;;;;;;;;;;5075824;28;20331;-84
2023/02/02 03:25:56;;;;;;;3.17;2.08;;;;;;;;;;5075481;28;20221;-83
2023/02/02 03:28:24;;;;;;;3.72;1.55;;;;;;;;;;5075135;28;20201;-83
2023/02/02 03:30:53;;;;;;;4.70;1.77;;;;;;;;;;5075971;28;20221;-83
2023/02/02 03:33:20;;;;;;;3.58;1.83;;;;;;;;;;5076336;28;20201;-82
2023/02/02 03:35:49;;;;;;;6.57;1.40;;;;;;;;;;5075593;28;20223;-83
2023/02/02 03:38:16;;;;;;;4.95;2.17;;;;;;;;;;5075438;28;20232;-82
2023/02/02 03:40:44;;;;;;;4.38;1.42;;;;;;;;;;5075875;28;20300;-82
2023/02/02 03:43:11;;;;;;;5.57;2.17;;;;;;;;;;5074952;28;20288;-85
2023/02/02 03:45:39;;;;;;;9.77;2.38;;;;;;;;;;5075469;28;20237;-84
2023/02/02 03:48:07;;;;;;;9.82;2.38;;;;;;;;;;5075772;28;20204;-83
2023/02/02 03:50:35;;;;;;;6.63;1.50;;;;;;;;;;5075425;28;20303;-83
2023/02/02 03:53:04;;;;;;;8.85;2.38;;;;;;;;;;5076332;28;20204;-84
2023/02/02 03:55:31;;;;;;;5.75;1.95;;;;;;;;;;5074877;28;20288;-83
2023/02/02 03:57:58;;;;;;;3.35;1.42;;;;;;;;;;5075123;28;20650;-83
2023/02/02 04:00:26;;;;;;;4.15;1.65;;;;;;;;;;5075196;28;20221;-83
2023/02/02 04:02:54;;;;;;;3.72;1.67;;;;;;;;;;5074566;28;20215;-84
2023/02/02 04:05:22;;;;;;;3.40;1.77;;;;;;;;;;5075093;28;20231;-83
2023/02/02 04:07:49;;;;;;;3.42;1.80;;;;;;;;;;5075344;28;20272;-83
2023/02/02 04:10:19;;;;;;;4.43;1.73;;;;;;;;;;5074102;28;20211;-83
2023/02/02 04:12:46;;;;;;;2.50;1.42;;;;;;;;;;5074627;28;20287;-84
2023/02/02 04:15:14;;;;;;;4.95;1.65;;;;;;;;;;5073414;28;20641;-84
2023/02/02 04:17:42;;;;;;;8.75;1.90;;;;;;;;;;5074862;28;20197;-84
2023/02/02 04:20:11;;;;;;;3.70;1.90;;;;;;;;;;5073428;28;20193;-83
2023/02/02 04:22:38;;;;;;;5.22;2.20;;;;;;;;;;5105595;22;20246;-80
2023/02/02 04:25:07;;;;;;;3.58;1.90;;;;;;;;;;5092567;28;20232;-81
2023/02/02 04:27:36;;;;;;;4.70;1.83;;;;;;;;;;5093507;28;20200;-80
2023/02/02 04:30:04;;;;;;;6.57;2.45;;;;;;;;;;5092275;28;20287;-80
2023/02/02 04:32:32;;;;;;;2.67;1.50;;;;;;;;;;5093799;28;20228;-80
2023/02/02 04:34:59;;;;;;;5.40;2.55;;;;;;;;;;5093524;28;20287;-81
2023/02/02 04:37:27;;;;;;;3.03;1.67;;;;;;;;;;5091517;28;20193;-80
2023/02/02 04:39:54;;;;;;;3.45;1.73;;;;;;;;;;5090877;28;20206;-80
2023/02/02 04:42:21;;;;;;;5.93;1.90;;;;;;;;;;5093924;28;20251;-80
2023/02/02 04:44:50;;;;;;;4.35;1.60;;;;;;;;;;5094292;28;20692;-80
2023/02/02 04:47:18;;;;;;;5.68;1.98;;;;;;;;;;5094139;28;20291;-81
2023/02/02 04:49:45;;;;;;;4.25;1.88;;;;;;;;;;5093538;28;20294;-81
2023/02/02 04:52:13;;;;;;;5.82;2.17;;;;;;;;;;5085699;28;20716;-80
2023/02/02 04:54:40;;;;;;;3.55;1.70;;;;;;;;;;5073620;28;20199;-80
2023/02/02 04:57:07;;;;;;;3.78;1.75;;;;;;;;;;5074034;28;20306;-81
2023/02/02 04:59:35;;;;;;;4.75;1.73;;;;;;;;;;5072131;28;20208;-81
2023/02/02 05:02:04;;;;;;;6.05;2.22;;;;;;;;;;5072008;28;20716;-80
2023/02/02 05:04:31;;;;;;;4.85;2.13;;;;;;;;;;5071949;28;20291;-80
2023/02/02 05:06:59;;;;;;;3.35;1.88;;;;;;;;;;5072566;28;20225;-80
2023/02/02 05:09:27;;;;;;;4.72;2.17;;;;;;;;;;5071457;28;20676;-80
2023/02/02 05:11:54;;;;;;;5.32;1.73;;;;;;;;;;5072681;28;20227;-79
2023/02/02 05:14:22;;;;;;;3.42;1.60;;;;;;;;;;5071297;28;20293;-79
2023/02/02 05:16:49;;;;;;;3.75;2.08;;;;;;;;;;5072481;28;20205;-79
2023/02/02 05:19:18;;;;;;;4.75;1.98;;;;;;;;;;5071118;28;20205;-80
2023/02/02 05:21:47;;;;;;;2.58;1.58;;;;;;;;;;5073889;28;20264;-80
2023/02/02 05:24:15;;;;;;;5.28;1.92;;;;;;;;;;5075249;28;20224;-80
2023/02/02 05:26:42;;;;;;;3.22;2.20;;;;;;;;;;5074320;28;20224;-81
2023/02/02 05:29:10;;;;;;;4.00;1.58;;;;;;;;;;5076637;28;20287;-81
2023/02/02 05:31:37;;;;;;;6.00;2.08;;;;;;;;;;5080487;28;20552;-80
2023/02/02 05:34:05;;;;;;;8.88;2.63;;;;;;;;;;5078904;28;20204;-82
2023/02/02 05:36:34;;;;;;;5.80;1.75;;;;;;;;;;5075438;28;20231;-81
2023/02/02 05:39:01;;;;;;;5.63;1.75;;;;;;;;;;5074847;28;20209;-80
2023/02/02 05:41:29;;;;;;;4.45;2.03;;;;;;;;;;5079493;28;20247;-82
2023/02/02 05:43:58;;;;;;;3.58;1.85;;;;;;;;;;5073697;28;20288;-82
2023/02/02 05:46:26;;;;;;;5.85;2.30;;;;;;;;;;5074577;28;20217;-82
2023/02/02 05:48:53;;;;;;;5.50;2.17;;;;;;;;;;5073344;28;20197;-82
2023/02/02 05:51:23;;;;;;;2.53;1.70;;;;;;;;;;5073954;28;20695;-82
2023/02/02 05:53:52;;;;;;;5.47;1.88;;;;;;;;;;5053544;28;20665;-82
2023/02/02 05:56:20;;;;;;;3.63;2.25;;;;;;;;;;5053413;28;20269;-81
2023/02/02 05:58:48;;;;;;;3.70;1.48;;;;;;;;;;5053305;28;20204;-82
2023/02/02 06:01:16;;;;;;;3.22;2.03;;;;;;;;;;5053801;28;20201;-82
2023/02/02 06:03:44;;;;;;;2.83;1.55;;;;;;;;;;5053794;28;20208;-81
2023/02/02 06:06:11;;;;;;;1.48;1.30;;;;;;;;;;5052666;28;20600;-81
2023/02/02 06:08:39;;;;;;;2.85;1.42;;;;;;;;;;5053136;28;20296;-82
2023/02/02 06:11:11;;;;;;;3.05;1.60;;;;;;;;;;5054252;28;20211;-82
2023/02/02 06:13:39;;;;;;;2.10;1.40;;;;;;;;;;5053021;28;20221;-83
2023/02/02 06:16:07;;;;;;;3.45;1.50;;;;;;;;;;5053466;28;20197;-82
2023/02/02 06:18:36;;;;;;;2.83;1.42;;;;;;;;;;5052710;28;20288;-83
2023/02/02 06:21:05;;;;;;;1.88;1.33;;;;;;;;;;5053170;28;20209;-83
2023/02/02 06:23:34;;;;;;;3.88;1.45;;;;;;;;;;5071440;28;20419;-84
2023/02/02 06:26:02;;;;;;;1.48;1.35;;;;;;;;;;5073801;28;20316;-84
2023/02/02 06:28:31;;;;;;;2.80;1.85;;;;;;;;;;5072797;28;20304;-83
2023/02/02 06:31:05;;;;;;;2.08;1.08;;;;;;;;;;5073659;28;20223;-82
2023/02/02 06:33:32;;;;;;;1.13;1.13;;;;;;;;;;5073688;28;20674;-82
2023/02/02 06:36:00;;;;;;;1.08;1.00;;;;;;;;;;5072939;28;20201;-83
2023/02/02 06:38:28;;;;;;;0.80;0.80;;;;;;;;;;5072871;28;20197;-84
2023/02/02 06:40:55;;;;;;;0.77;0.77;;;;;;;;;;5075457;28;20722;-82
2023/02/02 06:43:23;;;;;;;0.68;0.63;;;;;;;;;;5073593;28;20225;-83
2023/02/02 06:45:52;;;;;;;1.48;1.38;;;;;;;;;;5072839;28;20201;-84
2023/02/02 06:48:19;;;;;;;0.70;0.70;;;;;;;;;;5072048;28;20733;-83
2023/02/02 06:50:47;;;;;;;1.05;0.80;;;;;;;;;;5073357;28;20209;-83
2023/02/02 06:53:14;;;;;;;1.83;1.08;;;;;;;;;;5072691;28;20224;-83
2023/02/02 06:55:42;;;;;;;0.90;0.90;;;;;;;;;;5073071;28;20204;-83
2023/02/02 06:58:09;;;;;;;1.90;1.30;;;;;;;;;;5072039;28;20583;-82
2023/02/02 07:00:37;;;;;;;1.85;0.93;;;;;;;;;;5072292;28;20207;-83
2023/02/02 07:03:05;;;;;;;2.03;1.10;;;;;;;;;;5072265;28;20319;-82
2023/02/02 07:05:33;;;;;;;2.13;1.08;;;;;;;;;;5073012;28;20291;-82
2023/02/02 07:08:00;;;;;;;2.90;1.38;;;;;;;;;;5072108;28;20311;-81
2023/02/02 07:10:28;;;;;;;0.70;0.70;;;;;;;;;;5072295;28;20587;-83
2023/02/02 07:12:55;;;;;;;1.10;0.80;;;;;;;;;;5070956;28;20776;-81
2023/02/02 07:15:23;;;;;;;2.53;1.58;;;;;;;;;;5073675;28;20744;-83
2023/02/02 07:17:50;;;;;;;1.15;1.10;;;;;;;;;;5074595;28;20288;-82
2023/02/02 07:20:19;;;;;;;1.88;1.35;;;;;;;;;;5073868;28;20295;-81
2023/02/02 07:22:47;;;;;;;1.88;1.00;;;;;;;;;;5073571;28;20796;-83
2023/02/02 07:25:14;;;;;;;0.70;0.70;;;;;;;;;;5075995;28;20204;-82
2023/02/02 07:27:42;;;;;;;0.70;0.70;;;;;;;;;;5073530;28;20231;-83
2023/02/02 07:30:11;;;;;;;0.70;0.70;;;;;;;;;;5072634;28;20273;-83
2023/02/02 07:32:39;;;;;;;1.48;0.90;;;;;;;;;;5072879;28;20221;-83
2023/02/02 07:35:07;;;;;;;1.52;0.63;;;;;;;;;;5072542;28;20717;-83
2023/02/02 07:37:36;;;;;;;1.00;1.00;;;;;;;;;;5072427;28;20207;-83
2023/02/02 07:40:03;;;;;;;0.80;0.70;;;;;;;;;;5072525;28;20287;-83
2023/02/02 07:42:31;;;;;;;0.68;0.68;;;;;;;;;;5071512;28;20231;-83
2023/02/02 07:44:59;;;;;;;0.68;0.68;;;;;;;;;;5072753;28;20201;-82
2023/02/02 07:47:26;;;;;;;0.82;0.82;;;;;;;;;;5070115;28;20233;-82
2023/02/02 07:49:54;;;;;;;0.95;0.93;;;;;;;;;;5072071;28;20590;-83
2023/02/02 07:52:21;;;;;;;1.00;1.00;;;;;;;;;;5074955;28;20712;-83
2023/02/02 07:54:50;;;;;;;0.73;0.73;;;;;;;;;;5074861;28;20691;-84
2023/02/02 07:57:21;;;;;;;1.35;0.95;;;;;;;;;;5074834;28;20205;-83
2023/02/02 07:59:49;;;;;;;0.95;0.95;;;;;;;;;;5074716;28;20212;-83
2023/02/02 08:02:16;;;;;;;2.42;1.55;;;;;;;;;;5075173;28;20224;-82
2023/02/02 08:04:46;;;;;;;0.77;0.77;;;;;;;;;;5074776;28;20211;-83
2023/02/02 08:07:13;;;;;;;1.40;1.30;;;;;;;;;;5075225;28;20335;-82
2023/02/02 08:09:45;;;;;;;1.33;1.23;;;;;;;;;;5073756;28;20692;-84
2023/02/02 08:12:14;;;;;;;1.58;1.48;;;;;;;;;;5074560;28;20221;-83
2023/02/02 08:14:41;;;;;;;1.48;1.48;;;;;;;;;;5073181;28;20201;-82
2023/02/02 08:17:09;;;;;;;1.70;1.60;;;;;;;;;;5073534;28;20285;-83
2023/02/02 08:19:36;;;;;;;1.35;1.35;;;;;;;;;;5074129;28;20288;-83
2023/02/02 08:22:04;;;;;;;2.58;1.88;;;;;;;;;;5074344;28;20252;-83
2023/02/02 08:24:31;;;;;;;1.58;1.48;;;;;;;;;;5074359;28;20240;-82
2023/02/02 08:26:59;;;;;;;1.58;1.35;;;;;;;;;;5074651;28;20695;-82
2023/02/02 08:29:30;;;;;;;1.45;1.30;;;;;;;;;;5073576;28;20667;-82
2023/02/02 08:31:59;;;;;;;3.20;2.58;;;;;;;;;;5074045;28;20235;-82
2023/02/02 08:34:26;;;;;;;3.78;3.35;;;;;;;;;;5074597;28;20254;-82
2023/02/02 08:36:54;;;;;;;3.38;2.40;;;;;;;;;;5073814;28;20209;-82
2023/02/02 08:39:21;;;;;;;1.77;1.48;;;;;;;;;;5073205;28;20290;-82
2023/02/02 08:41:48;;;;;;;2.20;1.60;;;;;;;;;;5074208;28;20279;-82
2023/02/02 08:44:18;;;;;;;2.80;2.50;;;;;;;;;;5073471;28;20737;-83
2023/02/02 08:46:47;;;;;;;1.98;1.88;;;;;;;;;;5072463;28;20291;-82
2023/02/02 08:49:15;;;;;;;1.85;1.63;;;;;;;;;;5073151;28;20224;-82
2023/02/02 08:51:43;;;;;;;2.55;2.35;;;;;;;;;;5073599;28;20213;-82
2023/02/02 08:54:10;;;;;;;2.17;2.08;;;;;;;;;;5073423;28;20661;-82
2023/02/02 08:56:38;;;;;;;3.90;3.60;;;;;;;;;;5073954;28;20197;-82
2023/02/02 08:59:06;;;;;;;4.07;3.67;;;;;;;;;;5072821;28;20283;-82
2023/02/02 09:01:35;;;;;;;3.00;2.80;;;;;;;;;;5073158;28;20277;-82
2023/02/02 09:04:07;;;;;;;1.92;1.83;;;;;;;;;;5073796;28;20211;-82
2023/02/02 09:06:37;;;;;;;2.28;2.08;;;;;;;;;;5073658;28;20272;-83
2023/02/02 09:09:06;;;;;;;2.17;2.00;;;;;;;;;;5072638;28;20220;-83
2023/02/02 09:11:34;;;;;;;1.50;1.40;;;;;;;;;;5073091;28;20197;-83
2023/02/02 09:14:03;;;;;;;1.75;1.13;;;;;;;;;;5072531;28;20291;-82
2023/02/02 09:16:31;;;;;;;0.80;0.80;;;;;;;;;;5073497;28;20212;-82
2023/02/02 09:18:58;;;;;;;0.60;0.60;;;;;;;;;;5072753;28;20204;-82
2023/02/02 09:21:27;;;;;;;0.68;0.68;;;;;;;;;;5071520;28;20299;-82
2023/02/02 09:23:55;;;;;;;0.77;0.77;;;;;;;;;;5073316;28;20204;-82
2023/02/02 09:26:25;;;;;;;0.65;0.65;;;;;;;;;;5073301;28;20228;-82
2023/02/02 09:28:54;;;;;;;0.57;0.57;;;;;;;;;;5072131;28;20228;-82
2023/02/02 09:31:22;;;;;;;0.63;0.63;;;;;;;;;;5073079;28;20288;-82
2023/02/02 09:33:49;;;;;;;0.63;0.63;;;;;;;;;;5073451;28;20208;-82
2023/02/02 09:36:20;;;;;;;0.50;0.50;;;;;;;;;;5073298;28;20687;-82
2023/02/02 09:38:49;;;;;;;0.30;0.30;;;;;;;;;;5072629;28;20228;-82
2023/02/02 09:42:22;;;;;;;0.70;0.70;;;;;;;;;;5072817;28;20216;-82
2023/02/02 09:45:00;;;;;;;0.52;0.52;;;;;;;;;;5010701;28;20294;-82
2023/02/02 09:47:43;;;;;;;0.70;0.70;;;;;;;;;;5071710;28;20280;-83
2023/02/02 09:50:18;;;;;;;0.80;0.60;;;;;;;;;;5072036;28;20676;-82
2023/02/02 09:52:53;;;;;;;1.30;1.20;;;;;;;;;;5072646;28;20240;-82
2023/02/02 09:55:29;;;;;;;0.80;0.80;;;;;;;;;;5072568;28;20204;-82
2023/02/02 09:58:01;;;;;;;0.88;0.88;;;;;;;;;;5072309;28;20282;-82
2023/02/02 10:00:32;;;;;;;0.63;0.63;;;;;;;;;;5071774;28;20283;-82
2023/02/02 10:03:02;;;;;;;0.60;0.60;;;;;;;;;;5072199;28;20227;-82
2023/02/02 10:05:42;;;;;;;1.00;1.00;;;;;;;;;;5074864;28;20205;-83
2023/02/02 10:08:11;;;;;;;0.60;0.60;;;;;;;;;;5072521;28;20200;-82
2023/02/02 10:10:42;;;;;;;0.70;0.70;;;;;;;;;;5072352;28;20201;-82
2023/02/02 10:13:15;;;;;;;0.80;0.80;;;;;;;;;;5071831;28;20231;-82
2023/02/02 10:15:50;;;;;;;1.00;1.00;;;;;;;;;;5072607;28;20205;-82
2023/02/02 10:18:23;;;;;;;1.48;1.38;;;;;;;;;;5072361;28;20291;-82
2023/02/02 10:20:56;;;;;;;1.20;1.20;;;;;;;;;;5072771;28;20638;-82
2023/02/02 10:23:27;;;;;;;1.42;1.33;;;;;;;;;;5086977;22;20600;-88
2023/02/02 10:26:06;;;;;;;1.70;1.60;;;;;;;;;;5063214;28;20201;-89
2023/02/02 10:28:43;;;;;;;1.60;1.50;;;;;;;;;;5072049;28;20227;-88
2023/02/02 10:31:21;;;;;;;1.40;1.30;;;;;;;;;;5072721;28;20224;-89
2023/02/02 10:34:02;;;;;;;1.20;1.20;;;;;;;;;;5058724;28;20705;-88
2023/02/02 10:36:37;;;;;;;1.55;1.45;;;;;;;;;;5052020;28;20197;-89
2023/02/02 10:39:10;;;;;;;1.42;1.35;;;;;;;;;;5040344;28;20194;-89
2023/02/02 10:41:45;;;;;;;1.90;1.75;;;;;;;;;;5032867;28;20290;-88
2023/02/02 10:44:28;;;;;;;1.85;1.50;;;;;;;;;;5032525;28;20226;-89
2023/02/02 10:46:57;;;;;;;1.42;1.33;;;;;;;;;;5031643;28;20202;-89
2023/02/02 10:49:31;;;;;;;1.85;1.75;;;;;;;;;;5031587;28;20224;-89
2023/02/02 10:52:05;;;;;;;1.45;1.35;;;;;;;;;;5032528;28;20178;-89
2023/02/02 10:54:49;;;;;;;1.80;1.70;;;;;;;;;;5039638;28;20208;-88
2023/02/02 10:57:26;;;;;;;1.63;1.50;;;;;;;;;;5052584;28;20251;-89
2023/02/02 11:00:01;;;;;;;1.73;1.63;;;;;;;;;;5051866;28;20292;-89
2023/02/02 11:02:28;;;;;;;1.25;1.20;;;;;;;;;;5052515;28;20263;-89
2023/02/02 11:07:41;;;;;;;1.30;1.20;;;;;;;;;;5052521;28;20657;-89
2023/02/02 11:10:09;;;;;;;1.00;1.00;;;;;;;;;;5051707;28;20316;-89
2023/02/02 11:12:42;;;;;;;1.33;1.23;;;;;;;;;;5052106;28;20217;-88
2023/02/02 11:15:26;;;;;;;0.80;0.80;;;;;;;;;;5051190;28;20670;-89
2023/02/02 11:17:53;;;;;;;0.60;0.60;;;;;;;;;;5052091;28;20865;-89
2023/02/02 11:20:31;;;;;;;0.40;0.40;;;;;;;;;;5051470;28;20217;-89
2023/02/02 11:23:04;;;;;;;0.45;0.45;;;;;;;;;;5051930;28;20240;-89
2023/02/02 11:25:34;;;;;;;0.45;0.45;;;;;;;;;;5053749;28;20201;-89
2023/02/02 11:28:17;;;;;;;0.40;0.40;;;;;;;;;;5055501;28;20288;-90
2023/02/02 11:30:49;;;;;;;0.80;0.80;;;;;;;;;;5055787;28;20248;-89
2023/02/02 11:33:27;;;;;;;1.77;1.67;;;;;;;;;;5056029;28;20222;-89
2023/02/02 11:35:58;;;;;;;1.60;1.50;;;;;;;;;;5056234;28;20189;-90
2023/02/02 11:38:26;;;;;;;2.83;2.63;;;;;;;;;;5055595;28;20289;-89
2023/02/02 11:40:57;;;;;;;3.63;3.33;;;;;;;;;;5055775;28;20216;-88
2023/02/02 11:43:30;;;;;;;1.95;1.85;;;;;;;;;;5055683;28;20241;-89
2023/02/02 11:46:01;;;;;;;3.22;2.92;;;;;;;;;;5054198;28;20892;-88
2023/02/02 11:48:33;;;;;;;2.05;1.92;;;;;;;;;;5055229;28;20201;-88
2023/02/02 11:51:01;;;;;;;2.40;2.10;;;;;;;;;;5055408;28;20243;-90
2023/02/02 11:53:31;;;;;;;1.42;1.33;;;;;;;;;;5055552;28;20728;-89
2023/02/02 11:56:02;;;;;;;1.52;1.42;;;;;;;;;;5047116;28;20229;-88
2023/02/02 11:58:44;;;;;;;1.73;1.63;;;;;;;;;;5039521;28;20203;-89
2023/02/02 12:01:27;;;;;;;1.70;1.60;;;;;;;;;;5050003;28;20286;-88
2023/02/02 12:05:01;;;;;;;3.20;2.80;;;;;;;;;;5044837;28;20304;-89
2023/02/02 12:07:31;;;;;;;2.22;2.05;;;;;;;;;;5035373;28;20213;-88
2023/02/02 12:10:02;;;;;;;1.70;1.60;;;;;;;;;;5035108;28;20313;-89
2023/02/02 12:12:43;;;;;;;1.42;1.33;;;;;;;;;;5035283;28;20210;-88
2023/02/02 12:15:26;;;;;;;1.52;1.42;;;;;;;;;;5035286;28;20217;-88
2023/02/02 12:17:57;;;;;;;0.95;0.95;;;;;;;;;;5035323;28;20297;-89
2023/02/02 12:20:36;;;;;;;0.88;0.88;;;;;;;;;;5035219;28;20190;-87
2023/02/02 12:23:38;;;;;;;0.70;0.70;;;;;;;;;;5035247;28;20221;-88
2023/02/02 12:26:20;;;;;;;0.95;0.95;;;;;;;;;;5031009;28;20212;-89
2023/02/02 12:29:10;;;;;;;0.70;0.70;;;;;;;;;;5034762;28;20706;-89
2023/02/02 12:32:13;;;;;;;0.60;0.60;;;;;;;;;;5040188;28;20206;-89
2023/02/02 12:34:53;;;;;;;1.10;1.10;;;;;;;;;;5054594;28;20688;-88
2023/02/02 12:37:29;;;;;;;0.80;0.80;;;;;;;;;;5054465;28;20272;-89
2023/02/02 12:40:15;;;;;;;0.80;0.80;;;;;;;;;;5054341;28;20197;-88
2023/02/02 12:42:59;;;;;;;2.95;2.75;;;;;;;;;;5054092;28;20300;-88
2023/02/02 12:45:42;;;;;;;3.00;2.80;;;;;;;;;;5054301;28;20209;-89
2023/02/02 12:48:37;;;;;;;4.85;3.70;;;;;;;;;;5052580;28;20229;-88
2023/02/02 12:51:29;;;;;;;3.08;2.83;;;;;;;;;;5054286;28;20242;-88
2023/02/02 12:54:24;;;;;;;2.40;2.20;;;;;;;;;;5054424;28;20229;-88
2023/02/02 12:57:01;;;;;;;1.90;1.80;;;;;;;;;;5054467;28;20328;-88
2023/02/02 12:59:51;;;;;;;1.48;1.40;;;;;;;;;;5053804;28;20184;-88
2023/02/02 13:02:28;;;;;;;2.50;2.30;;;;;;;;;;5054156;28;20319;-88
2023/02/02 13:05:13;;;;;;;2.13;2.03;;;;;;;;;;5054038;28;20770;-88
2023/02/02 13:07:42;;;;;;;2.80;2.60;;;;;;;;;;5054307;28;20194;-89
2023/02/02 13:10:17;;;;;;;1.92;1.80;;;;;;;;;;5053643;28;20305;-88
2023/02/02 13:12:51;;;;;;;2.95;2.65;;;;;;;;;;5054035;28;20221;-87
2023/02/02 13:15:34;;;;;;;2.08;1.98;;;;;;;;;;5054122;28;20198;-88
2023/02/02 13:18:06;;;;;;;2.22;2.13;;;;;;;;;;5053859;28;20202;-89
2023/02/02 13:20:40;;;;;;;2.10;2.00;;;;;;;;;;5053932;28;20273;-88
2023/02/02 13:23:13;;;;;;;1.90;1.70;;;;;;;;;;5053046;28;20236;-88
2023/02/02 13:25:47;;;;;;;1.65;1.55;;;;;;;;;;5050795;28;20283;-88
2023/02/02 13:28:30;;;;;;;2.55;1.98;;;;;;;;;;5052831;28;20252;-88
2023/02/02 13:31:00;;;;;;;2.35;2.15;;;;;;;;;;5053541;28;20305;-88
2023/02/02 13:33:32;;;;;;;3.00;2.70;;;;;;;;;;5042070;28;20289;-88
2023/02/02 13:36:03;;;;;;;2.13;2.00;;;;;;;;;;5033758;28;20182;-88
2023/02/02 13:38:33;;;;;;;1.40;1.30;;;;;;;;;;5031749;28;20217;-88
2023/02/02 13:41:05;;;;;;;1.60;1.45;;;;;;;;;;5031366;28;20781;-88
2023/02/02 13:43:43;;;;;;;4.05;2.85;;;;;;;;;;5032374;28;20214;-88
2023/02/02 13:46:21;;;;;;;2.10;1.58;;;;;;;;;;5031423;28;20205;-88
2023/02/02 13:48:59;;;;;;;2.28;1.70;;;;;;;;;;5031177;28;20205;-89
2023/02/02 13:51:53;;;;;;;2.63;2.00;;;;;;;;;;5032173;28;20241;-88
2023/02/02 13:55:12;;;;;;;2.75;2.50;;;;;;;;;;5031466;28;20778;-88
2023/02/02 13:58:14;;;;;;;3.75;3.10;;;;;;;;;;5032172;28;20573;-88
2023/02/02 14:00:46;;;;;;;3.15;2.95;;;;;;;;;;5032015;28;20576;-88
2023/02/02 14:03:32;;;;;;;2.47;2.20;;;;;;;;;;5050653;28;20225;-89
2023/02/02 14:06:10;;;;;;;2.50;2.00;;;;;;;;;;5052011;28;20201;-89
2023/02/02 14:08:45;;;;;;;3.13;2.88;;;;;;;;;;5051168;28;20203;-88
2023/02/02 14:11:25;;;;;;;3.08;2.88;;;;;;;;;;5051699;28;20580;-88
2023/02/02 14:16:50;;;;;;;1.70;1.60;;;;;;;;;;5051928;28;20649;-88
2023/02/02 14:19:34;;;;;;;1.77;1.65;;;;;;;;;;5051109;28;20212;-88
2023/02/02 14:22:15;;;;;;;1.65;1.55;;;;;;;;;;5038628;28;20211;-88
2023/02/02 14:24:47;;;;;;;1.40;1.30;;;;;;;;;;5051598;28;20217;-88
2023/02/02 14:27:56;;;;;;;0.80;0.80;;;;;;;;;;5051465;28;20577;-87
2023/02/02 14:30:35;;;;;;;1.75;1.42;;;;;;;;;;5046835;28;20340;-88
2023/02/02 14:33:26;;;;;;;2.25;1.63;;;;;;;;;;5050874;28;20717;-88
2023/02/02 14:36:04;;;;;;;1.88;1.77;;;;;;;;;;5051414;28;20206;-88
2023/02/02 14:39:11;;;;;;;2.30;2.20;;;;;;;;;;5050536;28;20211;-88
2023/02/02 14:45:16;;;;;;;2.03;1.90;;;;;;;;;;5051209;28;20246;-88
2023/02/02 14:47:52;;;;;;;3.65;3.35;;;;;;;;;;5049722;28;20194;-88
2023/02/02 14:50:30;;;;;;;2.60;2.40;;;;;;;;;;5050319;28;20299;-87
2023/02/02 14:53:05;;;;;;;2.15;1.95;;;;;;;;;;5051167;28;20222;-88
2023/02/02 14:55:33;;;;;;;1.83;1.73;;;;;;;;;;5050729;28;20266;-88
2023/02/02 14:58:04;;;;;;;3.28;2.72;;;;;;;;;;5050645;28;20706;-88
2023/02/02 15:00:33;;;;;;;1.73;1.63;;;;;;;;;;5054571;28;20299;-87
2023/02/02 15:03:50;;;;;;;5.00;3.47;;;;;;;;;;5054890;28;20596;-87
2023/02/02 15:06:31;;;;;;;2.85;2.60;;;;;;;;;;4954603;29;20300;-87
2023/02/02 15:09:37;;;;;;;2.83;2.63;;;;;;;;;;4954100;29;20303;-87
2023/02/02 15:12:36;;;;;;;2.67;2.47;;;;;;;;;;5035739;28;20329;-87
2023/02/02 15:15:14;;;;;;;4.20;3.30;;;;;;;;;;5010384;28;20206;-87
2023/02/02 15:17:55;;;;;;;3.00;2.70;;;;;;;;;;5055117;28;20212;-87
2023/02/02 15:20:28;;;;;;;3.60;3.20;;;;;;;;;;5054843;28;20216;-86
2023/02/02 15:23:00;;;;;;;10.25;5.55;;;;;;;;;;5054723;28;20775;-87
2023/02/02 15:25:32;;;;;;;3.13;2.83;;;;;;;;;;5054845;28;20642;-87
2023/02/02 15:28:07;;;;;;;2.83;2.55;;;;;;;;;;5054647;28;20213;-87
2023/02/02 15:30:38;;;;;;;3.13;2.83;;;;;;;;;;5055018;28;20288;-87
2023/02/02 15:33:16;;;;;;;2.95;2.70;;;;;;;;;;5054582;28;20275;-87
2023/02/02 15:35:44;;;;;;;2.55;2.35;;;;;;;;;;5054659;28;20204;-87
2023/02/02 15:38:16;;;;;;;2.20;2.00;;;;;;;;;;5054043;28;20198;-87